Aviation Digital Data Service (ADDS)

Output produced by METARs form (2038 UTC 27 April 2017)
found at http://aviationweather.gov/adds/metars/
 
KAGC 271728Z 2718/2818 17012G18KT P6SM BKN200 
     FM272000 18009G18KT P6SM -SHRA VCTS BKN050CB 
     TEMPO 2721/2723 22010G30KT 5SM -TSRA BKN025CB 
     FM280000 21008KT P6SM BKN050 
     FM280700 26004KT P6SM BKN025 
     FM281300 20004KT P6SM SCT025